sensor_id;sensor_type;location;lat;lon;timestamp;temperature;humidity
80695;DHT22;70059;42.702;23.312;2023-07-31T00:00:28;22.40;56.30
80695;DHT22;70059;42.702;23.312;2023-07-31T00:02:54;22.50;56.30
80695;DHT22;70059;42.702;23.312;2023-07-31T00:05:20;22.50;56.00
80695;DHT22;70059;42.702;23.312;2023-07-31T00:07:46;22.50;55.90
80695;DHT22;70059;42.702;23.312;2023-07-31T00:10:11;22.90;55.70
80695;DHT22;70059;42.702;23.312;2023-07-31T00:12:38;22.90;54.60
80695;DHT22;70059;42.702;23.312;2023-07-31T00:15:06;22.90;54.40
80695;DHT22;70059;42.702;23.312;2023-07-31T00:17:32;22.90;54.20
80695;DHT22;70059;42.702;23.312;2023-07-31T00:19:58;22.80;54.40
80695;DHT22;70059;42.702;23.312;2023-07-31T00:22:23;22.40;56.20
80695;DHT22;70059;42.702;23.312;2023-07-31T00:24:49;22.20;57.30
80695;DHT22;70059;42.702;23.312;2023-07-31T00:27:15;22.30;56.90
80695;DHT22;70059;42.702;23.312;2023-07-31T00:29:40;22.40;56.80
80695;DHT22;70059;42.702;23.312;2023-07-31T00:32:06;22.30;57.10
80695;DHT22;70059;42.702;23.312;2023-07-31T00:34:32;22.30;58.80
80695;DHT22;70059;42.702;23.312;2023-07-31T00:36:58;22.30;58.00
80695;DHT22;70059;42.702;23.312;2023-07-31T00:39:24;22.30;58.20
80695;DHT22;70059;42.702;23.312;2023-07-31T00:41:49;22.40;58.50
80695;DHT22;70059;42.702;23.312;2023-07-31T00:44:15;22.60;57.80
80695;DHT22;70059;42.702;23.312;2023-07-31T00:46:40;22.80;57.60
80695;DHT22;70059;42.702;23.312;2023-07-31T00:49:06;22.50;57.70
80695;DHT22;70059;42.702;23.312;2023-07-31T00:51:33;22.10;59.40
80695;DHT22;70059;42.702;23.312;2023-07-31T00:53:58;22.30;59.40
80695;DHT22;70059;42.702;23.312;2023-07-31T00:56:25;22.50;58.60
80695;DHT22;70059;42.702;23.312;2023-07-31T00:58:51;22.70;58.30
80695;DHT22;70059;42.702;23.312;2023-07-31T01:01:16;22.70;58.20
80695;DHT22;70059;42.702;23.312;2023-07-31T01:03:42;22.70;58.40
80695;DHT22;70059;42.702;23.312;2023-07-31T01:09:45;23.00;57.50
80695;DHT22;70059;42.702;23.312;2023-07-31T01:12:16;22.40;58.80
80695;DHT22;70059;42.702;23.312;2023-07-31T01:15:05;22.40;59.20
80695;DHT22;70059;42.702;23.312;2023-07-31T01:17:31;22.30;59.50
80695;DHT22;70059;42.702;23.312;2023-07-31T01:20:02;22.10;60.30
80695;DHT22;70059;42.702;23.312;2023-07-31T01:27:56;21.80;61.80
80695;DHT22;70059;42.702;23.312;2023-07-31T01:30:28;21.80;62.20
80695;DHT22;70059;42.702;23.312;2023-07-31T01:32:59;21.50;63.50
80695;DHT22;70059;42.702;23.312;2023-07-31T01:35:27;21.60;63.50
80695;DHT22;70059;42.702;23.312;2023-07-31T01:37:53;21.50;63.70
80695;DHT22;70059;42.702;23.312;2023-07-31T01:40:21;21.20;64.90
80695;DHT22;70059;42.702;23.312;2023-07-31T01:42:47;21.10;65.20
80695;DHT22;70059;42.702;23.312;2023-07-31T01:45:12;21.00;66.10
80695;DHT22;70059;42.702;23.312;2023-07-31T01:47:38;21.00;66.10
80695;DHT22;70059;42.702;23.312;2023-07-31T01:50:04;21.20;65.30
80695;DHT22;70059;42.702;23.312;2023-07-31T01:52:30;21.30;65.20
80695;DHT22;70059;42.702;23.312;2023-07-31T01:54:55;21.20;65.90
80695;DHT22;70059;42.702;23.312;2023-07-31T01:57:21;21.10;66.40
80695;DHT22;70059;42.702;23.312;2023-07-31T01:59:46;21.00;67.10
80695;DHT22;70059;42.702;23.312;2023-07-31T02:02:13;21.00;67.90
80695;DHT22;70059;42.702;23.312;2023-07-31T02:04:38;21.20;66.40
80695;DHT22;70059;42.702;23.312;2023-07-31T02:07:05;21.20;66.40
80695;DHT22;70059;42.702;23.312;2023-07-31T02:09:31;21.30;66.10
80695;DHT22;70059;42.702;23.312;2023-07-31T02:11:57;21.20;66.40
80695;DHT22;70059;42.702;23.312;2023-07-31T02:14:22;21.30;66.70
80695;DHT22;70059;42.702;23.312;2023-07-31T02:16:48;21.40;66.10
80695;DHT22;70059;42.702;23.312;2023-07-31T02:19:13;21.50;65.20
80695;DHT22;70059;42.702;23.312;2023-07-31T02:21:39;21.40;65.30
80695;DHT22;70059;42.702;23.312;2023-07-31T02:24:05;21.50;65.40
80695;DHT22;70059;42.702;23.312;2023-07-31T02:26:31;21.50;65.60
80695;DHT22;70059;42.702;23.312;2023-07-31T02:28:56;21.50;66.20
80695;DHT22;70059;42.702;23.312;2023-07-31T02:31:22;21.50;65.60
80695;DHT22;70059;42.702;23.312;2023-07-31T02:33:47;21.70;65.50
80695;DHT22;70059;42.702;23.312;2023-07-31T02:36:13;21.80;64.60
80695;DHT22;70059;42.702;23.312;2023-07-31T02:38:40;21.90;64.10
80695;DHT22;70059;42.702;23.312;2023-07-31T02:41:05;21.80;64.10
80695;DHT22;70059;42.702;23.312;2023-07-31T02:43:31;21.50;65.30
80695;DHT22;70059;42.702;23.312;2023-07-31T02:45:57;21.70;65.50
80695;DHT22;70059;42.702;23.312;2023-07-31T02:48:22;21.50;65.40
80695;DHT22;70059;42.702;23.312;2023-07-31T02:50:48;21.70;65.30
80695;DHT22;70059;42.702;23.312;2023-07-31T02:53:14;21.80;64.70
80695;DHT22;70059;42.702;23.312;2023-07-31T02:55:40;21.90;64.20
80695;DHT22;70059;42.702;23.312;2023-07-31T02:58:06;21.60;64.80
80695;DHT22;70059;42.702;23.312;2023-07-31T03:00:32;21.70;65.00
80695;DHT22;70059;42.702;23.312;2023-07-31T03:02:57;21.60;65.40
80695;DHT22;70059;42.702;23.312;2023-07-31T03:05:23;21.60;65.50
80695;DHT22;70059;42.702;23.312;2023-07-31T03:07:49;21.80;64.80
80695;DHT22;70059;42.702;23.312;2023-07-31T03:10:14;21.80;64.10
80695;DHT22;70059;42.702;23.312;2023-07-31T03:12:40;21.70;64.40
80695;DHT22;70059;42.702;23.312;2023-07-31T03:15:07;21.80;64.60
80695;DHT22;70059;42.702;23.312;2023-07-31T03:17:32;21.80;65.20
80695;DHT22;70059;42.702;23.312;2023-07-31T03:19:58;22.10;63.50
80695;DHT22;70059;42.702;23.312;2023-07-31T03:22:24;22.10;63.10
80695;DHT22;70059;42.702;23.312;2023-07-31T03:24:49;22.10;63.80
80695;DHT22;70059;42.702;23.312;2023-07-31T03:27:15;22.30;63.60
80695;DHT22;70059;42.702;23.312;2023-07-31T03:29:40;22.10;63.20
80695;DHT22;70059;42.702;23.312;2023-07-31T03:32:06;22.10;64.00
80695;DHT22;70059;42.702;23.312;2023-07-31T03:34:32;22.30;63.10
80695;DHT22;70059;42.702;23.312;2023-07-31T03:36:58;22.50;63.20
80695;DHT22;70059;42.702;23.312;2023-07-31T03:39:24;22.10;62.70
80695;DHT22;70059;42.702;23.312;2023-07-31T03:41:49;21.90;64.30
80695;DHT22;70059;42.702;23.312;2023-07-31T03:44:15;22.00;63.50
80695;DHT22;70059;42.702;23.312;2023-07-31T03:46:41;22.10;63.40
80695;DHT22;70059;42.702;23.312;2023-07-31T03:49:06;22.10;62.50
80695;DHT22;70059;42.702;23.312;2023-07-31T03:51:32;21.90;63.50
80695;DHT22;70059;42.702;23.312;2023-07-31T03:53:58;21.60;64.70
80695;DHT22;70059;42.702;23.312;2023-07-31T03:56:23;21.80;64.70
80695;DHT22;70059;42.702;23.312;2023-07-31T03:58:49;21.80;64.20
80695;DHT22;70059;42.702;23.312;2023-07-31T04:01:15;21.60;65.20
80695;DHT22;70059;42.702;23.312;2023-07-31T04:03:40;21.70;64.50
80695;DHT22;70059;42.702;23.312;2023-07-31T04:06:06;21.70;64.80
80695;DHT22;70059;42.702;23.312;2023-07-31T04:08:35;21.60;64.80
80695;DHT22;70059;42.702;23.312;2023-07-31T04:11:01;21.60;65.40
80695;DHT22;70059;42.702;23.312;2023-07-31T04:13:28;21.40;66.00
80695;DHT22;70059;42.702;23.312;2023-07-31T04:15:54;21.30;66.10
80695;DHT22;70059;42.702;23.312;2023-07-31T04:18:20;21.50;65.40
80695;DHT22;70059;42.702;23.312;2023-07-31T04:20:45;21.60;65.50
80695;DHT22;70059;42.702;23.312;2023-07-31T04:23:11;21.80;64.40
80695;DHT22;70059;42.702;23.312;2023-07-31T04:25:37;22.20;63.30
80695;DHT22;70059;42.702;23.312;2023-07-31T04:28:03;22.20;62.50
80695;DHT22;70059;42.702;23.312;2023-07-31T04:30:29;22.30;61.80
80695;DHT22;70059;42.702;23.312;2023-07-31T04:32:54;22.40;61.40
80695;DHT22;70059;42.702;23.312;2023-07-31T04:35:20;22.30;61.50
80695;DHT22;70059;42.702;23.312;2023-07-31T04:37:45;22.40;61.40
80695;DHT22;70059;42.702;23.312;2023-07-31T04:40:14;22.50;60.60
80695;DHT22;70059;42.702;23.312;2023-07-31T04:42:40;22.50;60.70
80695;DHT22;70059;42.702;23.312;2023-07-31T04:45:07;22.00;62.40
80695;DHT22;70059;42.702;23.312;2023-07-31T04:47:33;22.10;61.60
80695;DHT22;70059;42.702;23.312;2023-07-31T04:49:58;22.10;61.80
80695;DHT22;70059;42.702;23.312;2023-07-31T04:52:24;22.20;61.50
80695;DHT22;70059;42.702;23.312;2023-07-31T04:54:50;21.90;62.40
80695;DHT22;70059;42.702;23.312;2023-07-31T04:57:15;22.00;62.20
80695;DHT22;70059;42.702;23.312;2023-07-31T04:59:41;22.10;62.10
80695;DHT22;70059;42.702;23.312;2023-07-31T05:02:12;22.30;61.30
80695;DHT22;70059;42.702;23.312;2023-07-31T05:04:38;22.50;60.00
80695;DHT22;70059;42.702;23.312;2023-07-31T05:07:04;22.30;61.20
80695;DHT22;70059;42.702;23.312;2023-07-31T05:09:30;22.60;60.10
80695;DHT22;70059;42.702;23.312;2023-07-31T05:11:56;22.80;59.20
80695;DHT22;70059;42.702;23.312;2023-07-31T05:14:21;23.00;58.80
80695;DHT22;70059;42.702;23.312;2023-07-31T05:16:47;23.20;58.00
80695;DHT22;70059;42.702;23.312;2023-07-31T05:19:13;23.50;56.90
80695;DHT22;70059;42.702;23.312;2023-07-31T05:21:38;23.70;56.00
80695;DHT22;70059;42.702;23.312;2023-07-31T05:24:04;23.90;55.10
80695;DHT22;70059;42.702;23.312;2023-07-31T05:26:30;24.00;54.40
80695;DHT22;70059;42.702;23.312;2023-07-31T05:28:56;23.80;55.20
80695;DHT22;70059;42.702;23.312;2023-07-31T05:31:23;23.60;55.40
80695;DHT22;70059;42.702;23.312;2023-07-31T05:33:50;23.80;55.50
80695;DHT22;70059;42.702;23.312;2023-07-31T05:36:16;23.90;55.00
80695;DHT22;70059;42.702;23.312;2023-07-31T05:38:42;24.00;54.30
80695;DHT22;70059;42.702;23.312;2023-07-31T05:41:11;24.20;53.60
80695;DHT22;70059;42.702;23.312;2023-07-31T05:43:36;24.10;53.70
80695;DHT22;70059;42.702;23.312;2023-07-31T05:46:02;24.10;53.00
80695;DHT22;70059;42.702;23.312;2023-07-31T05:48:27;23.90;53.30
80695;DHT22;70059;42.702;23.312;2023-07-31T05:50:53;23.90;53.70
80695;DHT22;70059;42.702;23.312;2023-07-31T05:53:19;24.00;53.10
80695;DHT22;70059;42.702;23.312;2023-07-31T05:55:44;24.20;51.80
80695;DHT22;70059;42.702;23.312;2023-07-31T05:58:10;24.20;51.50
80695;DHT22;70059;42.702;23.312;2023-07-31T06:00:38;24.10;51.30
80695;DHT22;70059;42.702;23.312;2023-07-31T06:03:04;23.90;51.40
80695;DHT22;70059;42.702;23.312;2023-07-31T06:05:30;23.90;51.80
80695;DHT22;70059;42.702;23.312;2023-07-31T06:07:56;23.90;51.40
80695;DHT22;70059;42.702;23.312;2023-07-31T06:10:22;23.90;51.40
80695;DHT22;70059;42.702;23.312;2023-07-31T06:12:48;24.00;50.80
80695;DHT22;70059;42.702;23.312;2023-07-31T06:15:14;24.10;50.80
80695;DHT22;70059;42.702;23.312;2023-07-31T06:17:39;24.40;50.30
80695;DHT22;70059;42.702;23.312;2023-07-31T06:20:06;24.60;49.20
80695;DHT22;70059;42.702;23.312;2023-07-31T06:22:32;24.70;48.60
80695;DHT22;70059;42.702;23.312;2023-07-31T06:24:58;24.90;47.60
80695;DHT22;70059;42.702;23.312;2023-07-31T06:27:24;25.10;46.90
80695;DHT22;70059;42.702;23.312;2023-07-31T06:29:50;25.30;46.40
80695;DHT22;70059;42.702;23.312;2023-07-31T06:32:16;25.50;45.90
80695;DHT22;70059;42.702;23.312;2023-07-31T06:34:41;25.60;45.50
80695;DHT22;70059;42.702;23.312;2023-07-31T06:37:07;25.80;45.00
80695;DHT22;70059;42.702;23.312;2023-07-31T06:39:32;25.60;44.50
80695;DHT22;70059;42.702;23.312;2023-07-31T06:41:58;25.70;44.50
80695;DHT22;70059;42.702;23.312;2023-07-31T06:44:24;25.60;44.80
80695;DHT22;70059;42.702;23.312;2023-07-31T06:46:49;25.30;46.60
80695;DHT22;70059;42.702;23.312;2023-07-31T06:49:16;25.20;46.20
80695;DHT22;70059;42.702;23.312;2023-07-31T06:51:42;25.50;45.80
80695;DHT22;70059;42.702;23.312;2023-07-31T06:54:08;25.80;45.10
80695;DHT22;70059;42.702;23.312;2023-07-31T06:56:34;26.00;44.60
80695;DHT22;70059;42.702;23.312;2023-07-31T06:59:00;26.10;43.30
80695;DHT22;70059;42.702;23.312;2023-07-31T07:01:26;25.50;43.90
80695;DHT22;70059;42.702;23.312;2023-07-31T07:03:53;25.60;44.50
80695;DHT22;70059;42.702;23.312;2023-07-31T07:06:18;25.20;44.60
80695;DHT22;70059;42.702;23.312;2023-07-31T07:08:44;25.10;45.10
80695;DHT22;70059;42.702;23.312;2023-07-31T07:11:10;25.10;45.50
80695;DHT22;70059;42.702;23.312;2023-07-31T07:13:36;25.20;45.30
80695;DHT22;70059;42.702;23.312;2023-07-31T07:16:01;25.30;44.80
80695;DHT22;70059;42.702;23.312;2023-07-31T07:18:27;25.30;44.70
80695;DHT22;70059;42.702;23.312;2023-07-31T07:20:54;25.40;44.90
80695;DHT22;70059;42.702;23.312;2023-07-31T07:23:20;25.20;45.20
80695;DHT22;70059;42.702;23.312;2023-07-31T07:25:46;25.10;45.10
80695;DHT22;70059;42.702;23.312;2023-07-31T07:28:13;24.70;45.50
80695;DHT22;70059;42.702;23.312;2023-07-31T07:30:39;24.90;46.40
80695;DHT22;70059;42.702;23.312;2023-07-31T07:33:05;25.40;45.50
80695;DHT22;70059;42.702;23.312;2023-07-31T07:35:33;26.00;43.60
80695;DHT22;70059;42.702;23.312;2023-07-31T07:38:00;26.10;42.20
80695;DHT22;70059;42.702;23.312;2023-07-31T07:40:26;26.40;41.80
80695;DHT22;70059;42.702;23.312;2023-07-31T07:42:52;27.60;38.60
80695;DHT22;70059;42.702;23.312;2023-07-31T07:45:17;27.40;38.40
80695;DHT22;70059;42.702;23.312;2023-07-31T07:47:43;28.10;37.20
80695;DHT22;70059;42.702;23.312;2023-07-31T07:50:09;28.90;35.00
80695;DHT22;70059;42.702;23.312;2023-07-31T07:52:35;28.80;34.20
80695;DHT22;70059;42.702;23.312;2023-07-31T07:55:00;29.10;33.60
80695;DHT22;70059;42.702;23.312;2023-07-31T07:57:26;29.50;33.20
80695;DHT22;70059;42.702;23.312;2023-07-31T07:59:52;30.90;30.80
80695;DHT22;70059;42.702;23.312;2023-07-31T08:02:18;32.50;28.30
80695;DHT22;70059;42.702;23.312;2023-07-31T08:04:44;32.90;27.50
80695;DHT22;70059;42.702;23.312;2023-07-31T08:07:12;33.40;26.70
80695;DHT22;70059;42.702;23.312;2023-07-31T08:09:38;34.90;24.40
80695;DHT22;70059;42.702;23.312;2023-07-31T08:12:05;34.10;24.00
80695;DHT22;70059;42.702;23.312;2023-07-31T08:14:31;33.90;24.40
80695;DHT22;70059;42.702;23.312;2023-07-31T08:16:56;32.50;26.30
80695;DHT22;70059;42.702;23.312;2023-07-31T08:19:22;31.60;28.10
80695;DHT22;70059;42.702;23.312;2023-07-31T08:21:48;33.00;26.20
80695;DHT22;70059;42.702;23.312;2023-07-31T08:24:13;35.20;23.00
80695;DHT22;70059;42.702;23.312;2023-07-31T08:26:39;37.10;20.40
80695;DHT22;70059;42.702;23.312;2023-07-31T08:29:05;38.10;18.80
80695;DHT22;70059;42.702;23.312;2023-07-31T08:31:31;38.20;18.10
80695;DHT22;70059;42.702;23.312;2023-07-31T08:33:57;38.10;18.30
80695;DHT22;70059;42.702;23.312;2023-07-31T08:36:22;38.10;18.00
80695;DHT22;70059;42.702;23.312;2023-07-31T08:38:48;38.70;18.10
80695;DHT22;70059;42.702;23.312;2023-07-31T08:41:15;40.30;16.10
80695;DHT22;70059;42.702;23.312;2023-07-31T08:43:45;41.80;14.30
80695;DHT22;70059;42.702;23.312;2023-07-31T08:46:11;40.90;14.90
80695;DHT22;70059;42.702;23.312;2023-07-31T08:48:37;41.30;14.70
80695;DHT22;70059;42.702;23.312;2023-07-31T08:51:06;39.60;15.50
80695;DHT22;70059;42.702;23.312;2023-07-31T08:53:32;40.20;16.00
80695;DHT22;70059;42.702;23.312;2023-07-31T08:55:59;41.80;13.60
80695;DHT22;70059;42.702;23.312;2023-07-31T08:58:25;43.60;12.50
80695;DHT22;70059;42.702;23.312;2023-07-31T09:00:53;45.10;10.90
80695;DHT22;70059;42.702;23.312;2023-07-31T09:03:22;46.40;9.70
80695;DHT22;70059;42.702;23.312;2023-07-31T09:05:50;46.80;8.80
80695;DHT22;70059;42.702;23.312;2023-07-31T09:08:19;45.60;9.90
80695;DHT22;70059;42.702;23.312;2023-07-31T09:10:46;46.70;8.90
80695;DHT22;70059;42.702;23.312;2023-07-31T09:13:15;45.50;9.90
80695;DHT22;70059;42.702;23.312;2023-07-31T09:15:43;43.00;11.30
80695;DHT22;70059;42.702;23.312;2023-07-31T09:18:09;43.70;11.90
80695;DHT22;70059;42.702;23.312;2023-07-31T09:20:36;43.20;12.30
80695;DHT22;70059;42.702;23.312;2023-07-31T09:23:08;41.70;13.70
80695;DHT22;70059;42.702;23.312;2023-07-31T09:25:34;39.10;16.20
80695;DHT22;70059;42.702;23.312;2023-07-31T09:28:01;38.00;17.30
80695;DHT22;70059;42.702;23.312;2023-07-31T09:30:28;38.20;17.30
80695;DHT22;70059;42.702;23.312;2023-07-31T09:33:02;38.10;17.20
80695;DHT22;70059;42.702;23.312;2023-07-31T09:35:31;37.80;18.40
80695;DHT22;70059;42.702;23.312;2023-07-31T09:38:08;40.20;15.80
80695;DHT22;70059;42.702;23.312;2023-07-31T09:40:42;41.60;13.70
80695;DHT22;70059;42.702;23.312;2023-07-31T09:43:13;42.10;13.40
80695;DHT22;70059;42.702;23.312;2023-07-31T09:45:41;41.60;13.30
80695;DHT22;70059;42.702;23.312;2023-07-31T09:48:12;39.50;15.30
80695;DHT22;70059;42.702;23.312;2023-07-31T09:50:39;40.30;15.00
80695;DHT22;70059;42.702;23.312;2023-07-31T09:53:06;42.50;12.70
80695;DHT22;70059;42.702;23.312;2023-07-31T09:55:32;43.60;11.40
80695;DHT22;70059;42.702;23.312;2023-07-31T09:57:58;45.30;10.00
80695;DHT22;70059;42.702;23.312;2023-07-31T10:00:24;45.80;9.30
80695;DHT22;70059;42.702;23.312;2023-07-31T10:02:53;44.20;10.60
80695;DHT22;70059;42.702;23.312;2023-07-31T10:05:20;43.40;11.60
80695;DHT22;70059;42.702;23.312;2023-07-31T10:07:55;43.90;11.40
80695;DHT22;70059;42.702;23.312;2023-07-31T10:10:22;43.70;11.50
80695;DHT22;70059;42.702;23.312;2023-07-31T10:12:56;43.70;11.20
80695;DHT22;70059;42.702;23.312;2023-07-31T10:15:22;44.10;10.50
80695;DHT22;70059;42.702;23.312;2023-07-31T10:17:49;44.60;10.10
80695;DHT22;70059;42.702;23.312;2023-07-31T10:20:16;44.40;9.60
80695;DHT22;70059;42.702;23.312;2023-07-31T10:22:42;43.60;11.40
80695;DHT22;70059;42.702;23.312;2023-07-31T10:25:09;43.40;11.60
80695;DHT22;70059;42.702;23.312;2023-07-31T10:27:35;44.20;10.50
80695;DHT22;70059;42.702;23.312;2023-07-31T10:30:04;44.70;10.00
80695;DHT22;70059;42.702;23.312;2023-07-31T10:32:31;45.40;9.50
80695;DHT22;70059;42.702;23.312;2023-07-31T10:34:58;46.80;8.60
80695;DHT22;70059;42.702;23.312;2023-07-31T10:37:28;47.70;7.70
80695;DHT22;70059;42.702;23.312;2023-07-31T10:40:13;48.90;6.50
80695;DHT22;70059;42.702;23.312;2023-07-31T10:42:55;48.50;6.90
80695;DHT22;70059;42.702;23.312;2023-07-31T10:48:06;48.70;6.50
80695;DHT22;70059;42.702;23.312;2023-07-31T10:50:36;47.00;7.40
80695;DHT22;70059;42.702;23.312;2023-07-31T10:53:02;47.50;7.60
80695;DHT22;70059;42.702;23.312;2023-07-31T10:55:42;47.80;7.20
80695;DHT22;70059;42.702;23.312;2023-07-31T10:58:11;48.50;6.60
80695;DHT22;70059;42.702;23.312;2023-07-31T11:00:42;47.00;7.60
80695;DHT22;70059;42.702;23.312;2023-07-31T11:03:10;45.70;8.50
80695;DHT22;70059;42.702;23.312;2023-07-31T11:08:26;44.10;9.90
80695;DHT22;70059;42.702;23.312;2023-07-31T11:11:06;43.90;10.20
80695;DHT22;70059;42.702;23.312;2023-07-31T11:15:59;45.70;8.90
80695;DHT22;70059;42.702;23.312;2023-07-31T11:18:28;46.00;8.10
80695;DHT22;70059;42.702;23.312;2023-07-31T11:20:53;46.70;7.80
80695;DHT22;70059;42.702;23.312;2023-07-31T11:23:21;46.90;7.60
80695;DHT22;70059;42.702;23.312;2023-07-31T11:25:46;47.40;7.50
80695;DHT22;70059;42.702;23.312;2023-07-31T11:28:14;46.60;7.50
80695;DHT22;70059;42.702;23.312;2023-07-31T11:30:41;45.50;8.80
80695;DHT22;70059;42.702;23.312;2023-07-31T11:33:09;43.60;9.60
80695;DHT22;70059;42.702;23.312;2023-07-31T11:35:46;41.50;11.80
80695;DHT22;70059;42.702;23.312;2023-07-31T11:38:20;42.40;11.50
80695;DHT22;70059;42.702;23.312;2023-07-31T11:40:48;43.00;10.70
80695;DHT22;70059;42.702;23.312;2023-07-31T11:43:13;42.10;11.80
80695;DHT22;70059;42.702;23.312;2023-07-31T11:45:48;41.30;12.60
80695;DHT22;70059;42.702;23.312;2023-07-31T11:48:26;41.40;12.40
80695;DHT22;70059;42.702;23.312;2023-07-31T11:50:54;42.20;11.90
80695;DHT22;70059;42.702;23.312;2023-07-31T11:53:28;43.10;10.90
80695;DHT22;70059;42.702;23.312;2023-07-31T11:56:00;43.10;10.80
80695;DHT22;70059;42.702;23.312;2023-07-31T11:58:27;43.90;10.00
80695;DHT22;70059;42.702;23.312;2023-07-31T12:00:54;44.40;9.70
80695;DHT22;70059;42.702;23.312;2023-07-31T12:03:20;45.10;9.00
80695;DHT22;70059;42.702;23.312;2023-07-31T12:05:47;45.70;8.80
80695;DHT22;70059;42.702;23.312;2023-07-31T12:08:14;45.80;8.80
80695;DHT22;70059;42.702;23.312;2023-07-31T12:10:40;45.20;8.80
80695;DHT22;70059;42.702;23.312;2023-07-31T12:13:09;44.90;9.40
80695;DHT22;70059;42.702;23.312;2023-07-31T12:15:44;44.80;9.20
80695;DHT22;70059;42.702;23.312;2023-07-31T12:18:11;44.80;9.80
80695;DHT22;70059;42.702;23.312;2023-07-31T12:20:41;44.80;9.70
80695;DHT22;70059;42.702;23.312;2023-07-31T12:23:07;44.30;10.20
80695;DHT22;70059;42.702;23.312;2023-07-31T12:25:37;44.60;9.70
80695;DHT22;70059;42.702;23.312;2023-07-31T12:28:07;44.90;9.40
80695;DHT22;70059;42.702;23.312;2023-07-31T12:30:37;45.30;9.40
80695;DHT22;70059;42.702;23.312;2023-07-31T12:33:13;45.40;9.00
80695;DHT22;70059;42.702;23.312;2023-07-31T12:35:45;45.30;9.40
80695;DHT22;70059;42.702;23.312;2023-07-31T12:38:12;45.00;9.50
80695;DHT22;70059;42.702;23.312;2023-07-31T12:40:39;44.30;9.40
80695;DHT22;70059;42.702;23.312;2023-07-31T12:43:05;41.60;11.50
80695;DHT22;70059;42.702;23.312;2023-07-31T12:45:32;41.30;12.30
80695;DHT22;70059;42.702;23.312;2023-07-31T12:48:01;40.50;14.00
80695;DHT22;70059;42.702;23.312;2023-07-31T12:50:27;38.90;14.60
80695;DHT22;70059;42.702;23.312;2023-07-31T12:52:53;38.00;15.90
80695;DHT22;70059;42.702;23.312;2023-07-31T12:55:20;37.30;16.50
80695;DHT22;70059;42.702;23.312;2023-07-31T12:57:46;37.00;17.20
80695;DHT22;70059;42.702;23.312;2023-07-31T13:00:12;36.60;17.10
80695;DHT22;70059;42.702;23.312;2023-07-31T13:02:39;37.30;17.40
80695;DHT22;70059;42.702;23.312;2023-07-31T13:05:05;38.30;16.10
80695;DHT22;70059;42.702;23.312;2023-07-31T13:07:30;39.10;15.10
80695;DHT22;70059;42.702;23.312;2023-07-31T13:09:56;40.20;14.30
80695;DHT22;70059;42.702;23.312;2023-07-31T13:12:22;40.60;13.40
80695;DHT22;70059;42.702;23.312;2023-07-31T13:14:47;40.20;13.70
80695;DHT22;70059;42.702;23.312;2023-07-31T13:17:13;39.30;14.80
80695;DHT22;70059;42.702;23.312;2023-07-31T13:19:39;38.40;15.40
80695;DHT22;70059;42.702;23.312;2023-07-31T13:22:04;37.50;16.00
80695;DHT22;70059;42.702;23.312;2023-07-31T13:24:30;36.60;17.10
80695;DHT22;70059;42.702;23.312;2023-07-31T13:26:56;35.80;18.00
80695;DHT22;70059;42.702;23.312;2023-07-31T13:29:23;35.40;18.40
80695;DHT22;70059;42.702;23.312;2023-07-31T13:31:49;34.90;18.80
80695;DHT22;70059;42.702;23.312;2023-07-31T13:34:15;34.90;19.20
80695;DHT22;70059;42.702;23.312;2023-07-31T13:36:41;35.40;18.90
80695;DHT22;70059;42.702;23.312;2023-07-31T13:39:07;36.20;19.20
80695;DHT22;70059;42.702;23.312;2023-07-31T13:41:33;36.80;17.80
80695;DHT22;70059;42.702;23.312;2023-07-31T13:43:58;36.80;17.50
80695;DHT22;70059;42.702;23.312;2023-07-31T13:46:24;36.40;17.00
80695;DHT22;70059;42.702;23.312;2023-07-31T13:48:51;36.70;17.20
80695;DHT22;70059;42.702;23.312;2023-07-31T13:51:20;36.60;16.90
80695;DHT22;70059;42.702;23.312;2023-07-31T13:53:45;36.30;17.20
80695;DHT22;70059;42.702;23.312;2023-07-31T13:56:11;35.30;18.50
80695;DHT22;70059;42.702;23.312;2023-07-31T13:58:37;35.50;18.60
80695;DHT22;70059;42.702;23.312;2023-07-31T14:01:02;35.40;18.70
80695;DHT22;70059;42.702;23.312;2023-07-31T14:03:28;35.10;18.60
80695;DHT22;70059;42.702;23.312;2023-07-31T14:05:55;34.90;19.50
80695;DHT22;70059;42.702;23.312;2023-07-31T14:08:21;34.20;19.70
80695;DHT22;70059;42.702;23.312;2023-07-31T14:10:47;33.40;20.90
80695;DHT22;70059;42.702;23.312;2023-07-31T14:13:12;33.50;21.00
80695;DHT22;70059;42.702;23.312;2023-07-31T14:15:39;32.60;22.00
80695;DHT22;70059;42.702;23.312;2023-07-31T14:18:05;32.40;22.70
80695;DHT22;70059;42.702;23.312;2023-07-31T14:20:30;33.00;22.60
80695;DHT22;70059;42.702;23.312;2023-07-31T14:22:56;33.30;22.20
80695;DHT22;70059;42.702;23.312;2023-07-31T14:25:22;33.50;21.90
80695;DHT22;70059;42.702;23.312;2023-07-31T14:27:47;33.80;21.90
80695;DHT22;70059;42.702;23.312;2023-07-31T14:30:13;34.00;21.70
80695;DHT22;70059;42.702;23.312;2023-07-31T14:32:39;34.10;21.30
80695;DHT22;70059;42.702;23.312;2023-07-31T14:35:05;33.90;21.80
80695;DHT22;70059;42.702;23.312;2023-07-31T14:37:41;34.20;21.80
80695;DHT22;70059;42.702;23.312;2023-07-31T14:40:09;34.40;21.70
80695;DHT22;70059;42.702;23.312;2023-07-31T14:42:35;34.40;21.40
80695;DHT22;70059;42.702;23.312;2023-07-31T14:45:02;34.30;21.90
80695;DHT22;70059;42.702;23.312;2023-07-31T14:47:28;34.20;21.90
80695;DHT22;70059;42.702;23.312;2023-07-31T14:49:54;34.30;22.10
80695;DHT22;70059;42.702;23.312;2023-07-31T14:52:19;34.60;21.60
80695;DHT22;70059;42.702;23.312;2023-07-31T14:54:45;34.80;21.20
80695;DHT22;70059;42.702;23.312;2023-07-31T14:57:11;35.00;21.00
80695;DHT22;70059;42.702;23.312;2023-07-31T14:59:36;35.30;20.70
80695;DHT22;70059;42.702;23.312;2023-07-31T15:02:02;35.50;20.40
80695;DHT22;70059;42.702;23.312;2023-07-31T15:04:28;35.70;20.20
80695;DHT22;70059;42.702;23.312;2023-07-31T15:06:54;35.70;20.40
80695;DHT22;70059;42.702;23.312;2023-07-31T15:09:21;35.50;20.40
80695;DHT22;70059;42.702;23.312;2023-07-31T15:11:47;35.20;20.40
80695;DHT22;70059;42.702;23.312;2023-07-31T15:14:13;34.80;21.20
80695;DHT22;70059;42.702;23.312;2023-07-31T15:16:38;34.40;21.80
80695;DHT22;70059;42.702;23.312;2023-07-31T15:19:04;34.20;22.20
80695;DHT22;70059;42.702;23.312;2023-07-31T15:21:30;33.70;23.10
80695;DHT22;70059;42.702;23.312;2023-07-31T15:23:55;33.50;23.50
80695;DHT22;70059;42.702;23.312;2023-07-31T15:26:21;33.30;23.70
80695;DHT22;70059;42.702;23.312;2023-07-31T15:28:50;33.00;23.80
80695;DHT22;70059;42.702;23.312;2023-07-31T15:31:20;32.70;24.50